EDAC/ADC METAR and TAF weather

Enter ICAO airport designator
Station Type Date Time Source
EDAC METAR 2022/08/13 11:20 UTC NOAA

EDAC 131120Z 04007KT 360V080 9999 FEW038 BKN065 BKN074 24/15 Q1018


Station Type Date Time Source
EDAC Decoded METAR 2022/08/13 11:20 UTC NOAA

Altenburg Nobitz, Germany (EDAC) 50-58N 012-30E
Aug 13, 2022 - 07:20 AM EDT / 2022.08.13 1120 UTC
Wind: from the NE (040 degrees) at 8 MPH (7 KT) (direction variable):0
Visibility: greater than 7 mile(s):0
Sky conditions: mostly cloudy
Temperature: 75 F (24 C)
Dew Point: 59 F (15 C)
Relative Humidity: 57%
Pressure (altimeter): 30.06 in. Hg (1018 hPa)
ob: EDAC 131120Z 04007KT 360V080 9999 FEW038 BKN065 BKN074 24/15 Q1018
cycle: 11

Station Type Date Time Source
EDAC TAF UTC NOAA

Error!

Example: see airport list